sensor_id;sensor_type;location;lat;lon;timestamp;pressure;altitude;pressure_sealevel;temperature;humidity
71149;BME280;59072;42.144;25.200;2023-04-05T00:00:44;99385.38;;;5.95;93.26
71149;BME280;59072;42.144;25.200;2023-04-05T00:03:09;99391.03;;;5.92;94.80
71149;BME280;59072;42.144;25.200;2023-04-05T00:05:35;99387.00;;;6.03;94.82
71149;BME280;59072;42.144;25.200;2023-04-05T00:08:02;99381.72;;;5.96;95.39
71149;BME280;59072;42.144;25.200;2023-04-05T00:10:29;99389.84;;;5.81;95.05
71149;BME280;59072;42.144;25.200;2023-04-05T00:12:55;99391.88;;;5.79;94.88
71149;BME280;59072;42.144;25.200;2023-04-05T00:15:20;99389.03;;;5.81;95.21
71149;BME280;59072;42.144;25.200;2023-04-05T00:17:46;99386.19;;;5.82;94.91
71149;BME280;59072;42.144;25.200;2023-04-05T00:20:12;99385.97;;;5.71;95.79
71149;BME280;59072;42.144;25.200;2023-04-05T00:22:37;99378.84;;;5.71;94.57
71149;BME280;59072;42.144;25.200;2023-04-05T00:25:03;99378.84;;;5.78;95.71
71149;BME280;59072;42.144;25.200;2023-04-05T00:27:29;99383.34;;;5.71;94.60
71149;BME280;59072;42.144;25.200;2023-04-05T00:29:55;99383.34;;;5.64;94.91
71149;BME280;59072;42.144;25.200;2023-04-05T00:32:21;99395.53;;;5.72;94.99
71149;BME280;59072;42.144;25.200;2023-04-05T00:34:46;99392.50;;;5.75;93.65
71149;BME280;59072;42.144;25.200;2023-04-05T00:37:12;99397.16;;;5.86;93.09
71149;BME280;59072;42.144;25.200;2023-04-05T00:39:38;99411.81;;;5.82;94.37
71149;BME280;59072;42.144;25.200;2023-04-05T00:42:04;99393.69;;;5.66;93.63
71149;BME280;59072;42.144;25.200;2023-04-05T00:44:30;99406.53;;;5.75;93.48
71149;BME280;59072;42.144;25.200;2023-04-05T00:47:01;99402.03;;;5.76;94.47
71149;BME280;59072;42.144;25.200;2023-04-05T00:49:28;99397.78;;;5.75;93.90
71149;BME280;59072;42.144;25.200;2023-04-05T00:51:56;99412.44;;;5.91;93.27
71149;BME280;59072;42.144;25.200;2023-04-05T00:54:22;99396.75;;;5.76;92.63
71149;BME280;59072;42.144;25.200;2023-04-05T00:56:48;99398.41;;;5.77;93.43
71149;BME280;59072;42.144;25.200;2023-04-05T00:59:17;99414.88;;;5.66;92.36
71149;BME280;59072;42.144;25.200;2023-04-05T01:01:42;99410.38;;;5.59;92.97
71149;BME280;59072;42.144;25.200;2023-04-05T01:04:24;99394.13;;;5.56;93.85
71149;BME280;59072;42.144;25.200;2023-04-05T01:07:01;99404.88;;;5.68;93.35
71149;BME280;59072;42.144;25.200;2023-04-05T01:09:50;99400.63;;;5.80;93.57
71149;BME280;59072;42.144;25.200;2023-04-05T01:12:18;99391.88;;;5.73;93.77
71149;BME280;59072;42.144;25.200;2023-04-05T01:14:48;99398.38;;;5.63;93.97
71149;BME280;59072;42.144;25.200;2023-04-05T01:17:15;99400.44;;;5.75;95.08
71149;BME280;59072;42.144;25.200;2023-04-05T01:20:05;99405.09;;;5.79;93.85
71149;BME280;59072;42.144;25.200;2023-04-05T01:34:02;99412.81;;;5.68;93.22
71149;BME280;59072;42.144;25.200;2023-04-05T01:36:34;99405.28;;;5.51;94.07
71149;BME280;59072;42.144;25.200;2023-04-05T01:39:03;99403.88;;;5.42;93.05
71149;BME280;59072;42.144;25.200;2023-04-05T01:41:29;99423.59;;;5.46;92.95
71149;BME280;59072;42.144;25.200;2023-04-05T01:43:55;99415.28;;;5.56;94.36
71149;BME280;59072;42.144;25.200;2023-04-05T01:46:21;99425.63;;;5.44;92.14
71149;BME280;59072;42.144;25.200;2023-04-05T01:48:46;99425.03;;;5.49;93.51
71149;BME280;59072;42.144;25.200;2023-04-05T01:51:12;99431.72;;;5.51;92.41
71149;BME280;59072;42.144;25.200;2023-04-05T01:53:37;99433.38;;;5.52;93.20
71149;BME280;59072;42.144;25.200;2023-04-05T01:56:02;99435.00;;;5.53;91.93
71149;BME280;59072;42.144;25.200;2023-04-05T01:58:28;99424.84;;;5.63;93.46
71149;BME280;59072;42.144;25.200;2023-04-05T02:00:54;99439.91;;;5.56;93.63
71149;BME280;59072;42.144;25.200;2023-04-05T02:03:23;99424.84;;;5.50;92.23
71149;BME280;59072;42.144;25.200;2023-04-05T02:05:48;99426.47;;;5.64;92.18
71149;BME280;59072;42.144;25.200;2023-04-05T02:08:14;99440.72;;;5.77;93.17
71149;BME280;59072;42.144;25.200;2023-04-05T02:10:40;99449.06;;;5.74;93.36
71149;BME280;59072;42.144;25.200;2023-04-05T02:13:05;99443.97;;;5.59;92.43
71149;BME280;59072;42.144;25.200;2023-04-05T02:15:31;99450.06;;;5.59;93.00
71149;BME280;59072;42.144;25.200;2023-04-05T02:17:59;99452.50;;;5.54;92.85
71149;BME280;59072;42.144;25.200;2023-04-05T02:20:28;99452.09;;;5.51;93.43
71149;BME280;59072;42.144;25.200;2023-04-05T02:22:54;99456.16;;;5.47;92.96
71149;BME280;59072;42.144;25.200;2023-04-05T02:25:20;99453.94;;;5.57;94.56
71149;BME280;59072;42.144;25.200;2023-04-05T02:27:46;99460.22;;;5.49;93.53
71149;BME280;59072;42.144;25.200;2023-04-05T02:30:12;99462.66;;;5.57;93.61
71149;BME280;59072;42.144;25.200;2023-04-05T02:32:39;99467.97;;;5.57;92.64
71149;BME280;59072;42.144;25.200;2023-04-05T02:35:08;99469.59;;;5.58;94.13
71149;BME280;59072;42.144;25.200;2023-04-05T02:37:33;99469.59;;;5.58;94.46
71149;BME280;59072;42.144;25.200;2023-04-05T02:40:00;99468.81;;;5.64;94.35
71149;BME280;59072;42.144;25.200;2023-04-05T02:42:25;99472.66;;;5.62;92.08
71149;BME280;59072;42.144;25.200;2023-04-05T02:44:51;99468.78;;;5.58;93.38
71149;BME280;59072;42.144;25.200;2023-04-05T02:47:17;99472.22;;;5.45;93.58
71149;BME280;59072;42.144;25.200;2023-04-05T02:49:45;99484.41;;;5.39;95.53
71149;BME280;59072;42.144;25.200;2023-04-05T02:52:11;99481.78;;;5.39;95.99
71149;BME280;59072;42.144;25.200;2023-04-05T02:54:36;99488.25;;;5.37;93.13
71149;BME280;59072;42.144;25.200;2023-04-05T02:57:01;99488.88;;;5.39;95.02
71149;BME280;59072;42.144;25.200;2023-04-05T02:59:27;99493.97;;;5.47;95.44
71149;BME280;59072;42.144;25.200;2023-04-05T03:01:53;99486.88;;;5.54;92.84
71149;BME280;59072;42.144;25.200;2023-04-05T03:04:18;99489.31;;;5.49;93.56
71149;BME280;59072;42.144;25.200;2023-04-05T03:06:43;99489.91;;;5.38;94.38
71149;BME280;59072;42.144;25.200;2023-04-05T03:09:14;99494.03;;;5.54;92.82
71149;BME280;59072;42.144;25.200;2023-04-05T03:11:39;99488.66;;;5.34;94.74
71149;BME280;59072;42.144;25.200;2023-04-05T03:14:05;99473.38;;;5.22;92.63
71149;BME280;59072;42.144;25.200;2023-04-05T03:16:30;99495.56;;;5.28;93.08
71149;BME280;59072;42.144;25.200;2023-04-05T03:18:56;99490.25;;;5.21;93.39
71149;BME280;59072;42.144;25.200;2023-04-05T03:21:21;99491.50;;;5.26;92.58
71149;BME280;59072;42.144;25.200;2023-04-05T03:23:47;99496.78;;;5.26;92.55
71149;BME280;59072;42.144;25.200;2023-04-05T03:26:14;99491.69;;;5.24;92.12
71149;BME280;59072;42.144;25.200;2023-04-05T03:28:40;99491.03;;;5.15;92.70
71149;BME280;59072;42.144;25.200;2023-04-05T03:31:10;99496.34;;;5.15;94.00
71149;BME280;59072;42.144;25.200;2023-04-05T03:33:35;99493.88;;;5.14;94.61
71149;BME280;59072;42.144;25.200;2023-04-05T03:36:01;99498.41;;;5.27;94.66
71149;BME280;59072;42.144;25.200;2023-04-05T03:38:27;99495.31;;;5.23;94.18
71149;BME280;59072;42.144;25.200;2023-04-05T03:40:53;99486.59;;;5.22;94.77
71149;BME280;59072;42.144;25.200;2023-04-05T03:43:18;99507.72;;;5.22;95.23
71149;BME280;59072;42.144;25.200;2023-04-05T03:45:43;99490.69;;;5.32;94.10
71149;BME280;59072;42.144;25.200;2023-04-05T03:48:09;99508.34;;;5.24;94.27
71149;BME280;59072;42.144;25.200;2023-04-05T03:50:35;99515.03;;;5.20;93.84
71149;BME280;59072;42.144;25.200;2023-04-05T03:53:00;99506.91;;;5.15;94.27
71149;BME280;59072;42.144;25.200;2023-04-05T03:55:26;99504.25;;;5.15;93.56
71149;BME280;59072;42.144;25.200;2023-04-05T03:57:51;99510.53;;;5.14;94.29
71149;BME280;59072;42.144;25.200;2023-04-05T04:00:17;99525.44;;;5.29;93.39
71149;BME280;59072;42.144;25.200;2023-04-05T04:02:45;99524.00;;;5.19;93.70
71149;BME280;59072;42.144;25.200;2023-04-05T04:05:11;99524.94;;;5.05;93.01
71149;BME280;59072;42.144;25.200;2023-04-05T04:07:36;99522.69;;;5.02;92.03
71149;BME280;59072;42.144;25.200;2023-04-05T04:10:03;99527.91;;;4.89;94.21
71149;BME280;59072;42.144;25.200;2023-04-05T04:12:29;99529.63;;;5.03;92.70
71149;BME280;59072;42.144;25.200;2023-04-05T04:14:54;99523.28;;;4.97;93.44
71149;BME280;59072;42.144;25.200;2023-04-05T04:17:28;99518.59;;;4.93;95.92
71149;BME280;59072;42.144;25.200;2023-04-05T04:19:54;99533.72;;;5.12;95.18
71149;BME280;59072;42.144;25.200;2023-04-05T04:22:19;99535.38;;;5.20;94.55
71149;BME280;59072;42.144;25.200;2023-04-05T04:24:45;99533.88;;;5.04;93.57
71149;BME280;59072;42.144;25.200;2023-04-05T04:27:16;99536.47;;;4.91;94.56
71149;BME280;59072;42.144;25.200;2023-04-05T04:29:42;99541.94;;;4.89;93.55
71149;BME280;59072;42.144;25.200;2023-04-05T04:32:11;99545.69;;;5.08;93.34
71149;BME280;59072;42.144;25.200;2023-04-05T04:34:37;99543.81;;;5.02;93.19
71149;BME280;59072;42.144;25.200;2023-04-05T04:37:15;99552.00;;;5.07;93.53
71149;BME280;59072;42.144;25.200;2023-04-05T04:39:47;99541.03;;;5.10;93.52
71149;BME280;59072;42.144;25.200;2023-04-05T04:42:13;99551.25;;;5.20;94.31
71149;BME280;59072;42.144;25.200;2023-04-05T04:44:44;99546.94;;;5.19;93.66
71149;BME280;59072;42.144;25.200;2023-04-05T04:47:10;99545.97;;;5.27;92.75
71149;BME280;59072;42.144;25.200;2023-04-05T04:49:37;99548.63;;;5.27;94.31
71149;BME280;59072;42.144;25.200;2023-04-05T04:52:02;99559.59;;;5.23;92.51
71149;BME280;59072;42.144;25.200;2023-04-05T04:54:28;99561.41;;;5.23;91.73
71149;BME280;59072;42.144;25.200;2023-04-05T04:56:53;99563.13;;;5.37;92.10
71149;BME280;59072;42.144;25.200;2023-04-05T04:59:20;99575.31;;;5.38;91.47
71149;BME280;59072;42.144;25.200;2023-04-05T05:01:45;99580.59;;;5.32;92.83
71149;BME280;59072;42.144;25.200;2023-04-05T05:04:10;99574.63;;;5.23;92.88
71149;BME280;59072;42.144;25.200;2023-04-05T05:06:36;99580.63;;;5.38;91.72
71149;BME280;59072;42.144;25.200;2023-04-05T05:09:02;99577.00;;;5.46;90.89
71149;BME280;59072;42.144;25.200;2023-04-05T05:11:28;99583.50;;;5.50;91.11
71149;BME280;59072;42.144;25.200;2023-04-05T05:13:53;99587.59;;;5.53;89.89
71149;BME280;59072;42.144;25.200;2023-04-05T05:16:19;99580.63;;;5.45;92.61
71149;BME280;59072;42.144;25.200;2023-04-05T05:18:49;99553.38;;;5.38;90.61
71149;BME280;59072;42.144;25.200;2023-04-05T05:21:15;99582.94;;;5.61;90.67
71149;BME280;59072;42.144;25.200;2023-04-05T05:23:40;99579.50;;;5.68;91.91
71149;BME280;59072;42.144;25.200;2023-04-05T05:26:06;99580.78;;;5.85;90.98
71149;BME280;59072;42.144;25.200;2023-04-05T05:28:31;99586.13;;;5.98;89.35
71149;BME280;59072;42.144;25.200;2023-04-05T05:30:57;99578.22;;;6.05;89.00
71149;BME280;59072;42.144;25.200;2023-04-05T05:33:22;99578.81;;;6.14;89.54
71149;BME280;59072;42.144;25.200;2023-04-05T05:35:49;99580.06;;;6.18;88.79
71149;BME280;59072;42.144;25.200;2023-04-05T05:38:18;99593.09;;;6.39;90.15
71149;BME280;59072;42.144;25.200;2023-04-05T05:40:43;99596.34;;;6.41;86.80
71149;BME280;59072;42.144;25.200;2023-04-05T05:43:09;99592.69;;;6.16;85.54
71149;BME280;59072;42.144;25.200;2023-04-05T05:45:35;99591.44;;;6.18;88.04
71149;BME280;59072;42.144;25.200;2023-04-05T05:48:01;99583.69;;;6.03;87.91
71149;BME280;59072;42.144;25.200;2023-04-05T05:50:26;99589.81;;;6.11;88.59
71149;BME280;59072;42.144;25.200;2023-04-05T05:52:52;99587.59;;;6.28;86.37
71149;BME280;59072;42.144;25.200;2023-04-05T05:55:17;99594.75;;;6.40;85.78
71149;BME280;59072;42.144;25.200;2023-04-05T05:57:43;99604.50;;;6.33;85.00
71149;BME280;59072;42.144;25.200;2023-04-05T06:00:09;99595.75;;;6.19;86.52
71149;BME280;59072;42.144;25.200;2023-04-05T06:02:35;99589.66;;;6.26;85.66
71149;BME280;59072;42.144;25.200;2023-04-05T06:05:00;99603.31;;;6.36;86.16
71149;BME280;59072;42.144;25.200;2023-04-05T06:07:26;99602.47;;;6.22;86.42
71149;BME280;59072;42.144;25.200;2023-04-05T06:09:52;99609.41;;;6.36;86.52
71149;BME280;59072;42.144;25.200;2023-04-05T06:12:20;99610.63;;;6.34;87.41
71149;BME280;59072;42.144;25.200;2023-04-05T06:14:45;99609.81;;;6.47;86.94
71149;BME280;59072;42.144;25.200;2023-04-05T06:17:10;99610.63;;;6.67;84.06
71149;BME280;59072;42.144;25.200;2023-04-05T06:19:36;99607.78;;;6.62;85.75
71149;BME280;59072;42.144;25.200;2023-04-05T06:22:01;99616.75;;;6.54;85.63
71149;BME280;59072;42.144;25.200;2023-04-05T06:24:27;99611.84;;;6.78;85.28
71149;BME280;59072;42.144;25.200;2023-04-05T06:26:58;99607.16;;;6.87;85.61
71149;BME280;59072;42.144;25.200;2023-04-05T06:29:24;99611.84;;;6.84;86.39
71149;BME280;59072;42.144;25.200;2023-04-05T06:31:50;99616.53;;;6.96;84.58
71149;BME280;59072;42.144;25.200;2023-04-05T06:34:15;99624.66;;;6.94;82.35
71149;BME280;59072;42.144;25.200;2023-04-05T06:36:41;99611.66;;;6.93;84.49
71149;BME280;59072;42.144;25.200;2023-04-05T06:39:07;99616.03;;;7.39;84.04
71149;BME280;59072;42.144;25.200;2023-04-05T06:41:32;99620.09;;;7.35;81.69
71149;BME280;59072;42.144;25.200;2023-04-05T06:43:57;99617.81;;;7.52;80.49
71149;BME280;59072;42.144;25.200;2023-04-05T06:46:23;99615.47;;;7.23;80.96
71149;BME280;59072;42.144;25.200;2023-04-05T06:48:48;99624.06;;;7.06;83.31
71149;BME280;59072;42.144;25.200;2023-04-05T06:51:14;99627.50;;;7.13;82.91
71149;BME280;59072;42.144;25.200;2023-04-05T06:53:40;99628.88;;;7.35;82.78
71149;BME280;59072;42.144;25.200;2023-04-05T06:56:06;99626.09;;;7.03;80.01
71149;BME280;59072;42.144;25.200;2023-04-05T06:58:31;99649.16;;;7.03;80.53
71149;BME280;59072;42.144;25.200;2023-04-05T07:00:59;99602.25;;;6.97;81.95
71149;BME280;59072;42.144;25.200;2023-04-05T07:03:24;99644.63;;;7.30;81.94
71149;BME280;59072;42.144;25.200;2023-04-05T07:05:51;99645.19;;;7.39;81.69
71149;BME280;59072;42.144;25.200;2023-04-05T07:08:18;99644.78;;;7.35;82.11
71149;BME280;59072;42.144;25.200;2023-04-05T07:10:44;99645.53;;;7.56;82.13
71149;BME280;59072;42.144;25.200;2023-04-05T07:13:10;99645.44;;;7.82;80.33
71149;BME280;59072;42.144;25.200;2023-04-05T07:15:35;99644.41;;;8.29;80.54
71149;BME280;59072;42.144;25.200;2023-04-05T07:18:00;99645.09;;;8.49;78.59
71149;BME280;59072;42.144;25.200;2023-04-05T07:20:26;99666.53;;;8.16;75.48
71149;BME280;59072;42.144;25.200;2023-04-05T07:22:51;99652.91;;;8.37;77.93
71149;BME280;59072;42.144;25.200;2023-04-05T07:25:17;99662.09;;;8.73;80.68
71149;BME280;59072;42.144;25.200;2023-04-05T07:27:43;99665.13;;;9.02;76.65
71149;BME280;59072;42.144;25.200;2023-04-05T07:30:08;99666.56;;;8.79;78.18
71149;BME280;59072;42.144;25.200;2023-04-05T07:32:34;99670.91;;;8.35;75.06
71149;BME280;59072;42.144;25.200;2023-04-05T07:34:59;99661.88;;;8.04;77.15
71149;BME280;59072;42.144;25.200;2023-04-05T07:37:25;99669.56;;;7.74;77.27
71149;BME280;59072;42.144;25.200;2023-04-05T07:39:51;99660.53;;;7.95;78.62
71149;BME280;59072;42.144;25.200;2023-04-05T07:42:17;99675.47;;;8.28;78.00
71149;BME280;59072;42.144;25.200;2023-04-05T07:44:45;99671.38;;;8.64;78.48
71149;BME280;59072;42.144;25.200;2023-04-05T07:47:11;99675.59;;;8.40;77.64
71149;BME280;59072;42.144;25.200;2023-04-05T07:49:36;99665.91;;;8.59;79.41
71149;BME280;59072;42.144;25.200;2023-04-05T07:52:02;99674.75;;;8.78;79.40
71149;BME280;59072;42.144;25.200;2023-04-05T07:54:30;99680.97;;;9.15;78.96
71149;BME280;59072;42.144;25.200;2023-04-05T07:56:55;99689.00;;;9.34;74.33
71149;BME280;59072;42.144;25.200;2023-04-05T07:59:22;99682.34;;;9.43;76.17
71149;BME280;59072;42.144;25.200;2023-04-05T08:01:48;99684.00;;;9.44;74.62
71149;BME280;59072;42.144;25.200;2023-04-05T08:04:13;99686.66;;;9.62;76.36
71149;BME280;59072;42.144;25.200;2023-04-05T08:06:39;99688.72;;;9.42;73.39
71149;BME280;59072;42.144;25.200;2023-04-05T08:09:05;99693.66;;;9.13;74.85
71149;BME280;59072;42.144;25.200;2023-04-05T08:11:32;99686.97;;;8.85;76.00
71149;BME280;59072;42.144;25.200;2023-04-05T08:13:58;99700.31;;;9.04;76.45
71149;BME280;59072;42.144;25.200;2023-04-05T08:16:23;99694.75;;;8.80;77.34
71149;BME280;59072;42.144;25.200;2023-04-05T08:18:49;99695.63;;;8.74;76.54
71149;BME280;59072;42.144;25.200;2023-04-05T08:21:14;99697.59;;;8.85;76.60
71149;BME280;59072;42.144;25.200;2023-04-05T08:23:40;99698.19;;;8.88;75.33
71149;BME280;59072;42.144;25.200;2023-04-05T08:26:05;99702.53;;;8.82;75.99
71149;BME280;59072;42.144;25.200;2023-04-05T08:28:32;99693.22;;;8.98;74.06
71149;BME280;59072;42.144;25.200;2023-04-05T08:30:58;99699.06;;;9.07;75.55
71149;BME280;59072;42.144;25.200;2023-04-05T08:33:24;99700.94;;;9.24;73.74
71149;BME280;59072;42.144;25.200;2023-04-05T08:35:55;99704.69;;;9.42;75.24
71149;BME280;59072;42.144;25.200;2023-04-05T08:38:21;99702.91;;;9.36;74.69
71149;BME280;59072;42.144;25.200;2023-04-05T08:40:47;99698.78;;;9.15;75.37
71149;BME280;59072;42.144;25.200;2023-04-05T08:44:01;99697.91;;;9.64;77.05
71149;BME280;59072;42.144;25.200;2023-04-05T08:46:32;99689.81;;;9.34;75.81
71149;BME280;59072;42.144;25.200;2023-04-05T08:48:59;99704.97;;;9.34;75.17
71149;BME280;59072;42.144;25.200;2023-04-05T08:51:28;99704.81;;;9.47;74.81
71149;BME280;59072;42.144;25.200;2023-04-05T08:53:54;99711.34;;;9.51;76.11
71149;BME280;59072;42.144;25.200;2023-04-05T08:56:24;99687.16;;;9.53;74.16
71149;BME280;59072;42.144;25.200;2023-04-05T08:59:10;99719.91;;;9.53;75.17
71149;BME280;59072;42.144;25.200;2023-04-05T09:01:40;99691.34;;;9.23;72.61
71149;BME280;59072;42.144;25.200;2023-04-05T09:04:11;99716.38;;;9.59;72.97
71149;BME280;59072;42.144;25.200;2023-04-05T09:06:38;99722.06;;;9.44;73.44
71149;BME280;59072;42.144;25.200;2023-04-05T09:09:07;99702.53;;;9.32;75.12
71149;BME280;59072;42.144;25.200;2023-04-05T09:11:34;99720.50;;;9.37;74.11
71149;BME280;59072;42.144;25.200;2023-04-05T09:14:02;99708.72;;;9.26;73.45
71149;BME280;59072;42.144;25.200;2023-04-05T09:16:31;99698.50;;;9.23;73.64
71149;BME280;59072;42.144;25.200;2023-04-05T09:18:57;99713.25;;;9.25;72.99
71149;BME280;59072;42.144;25.200;2023-04-05T09:21:23;99713.00;;;9.02;73.90
71149;BME280;59072;42.144;25.200;2023-04-05T09:23:52;99710.88;;;9.11;73.47
71149;BME280;59072;42.144;25.200;2023-04-05T09:26:20;99713.88;;;9.46;73.26
71149;BME280;59072;42.144;25.200;2023-04-05T09:28:46;99722.06;;;9.44;75.18
71149;BME280;59072;42.144;25.200;2023-04-05T09:31:30;99724.94;;;9.43;72.97
71149;BME280;59072;42.144;25.200;2023-04-05T09:34:01;99712.97;;;9.34;74.78
71149;BME280;59072;42.144;25.200;2023-04-05T09:36:27;99720.38;;;9.69;73.53
71149;BME280;59072;42.144;25.200;2023-04-05T09:39:03;99712.81;;;10.02;72.62
71149;BME280;59072;42.144;25.200;2023-04-05T09:41:29;99711.50;;;9.75;69.15
71149;BME280;59072;42.144;25.200;2023-04-05T09:43:55;99719.47;;;9.38;72.12
71149;BME280;59072;42.144;25.200;2023-04-05T09:46:34;99717.44;;;9.58;70.99
71149;BME280;59072;42.144;25.200;2023-04-05T09:49:03;99717.84;;;9.74;74.68
71149;BME280;59072;42.144;25.200;2023-04-05T09:51:35;99723.09;;;9.80;70.19
71149;BME280;59072;42.144;25.200;2023-04-05T09:54:06;99718.53;;;9.69;71.58
71149;BME280;59072;42.144;25.200;2023-04-05T09:56:36;99691.22;;;9.55;73.38
71149;BME280;59072;42.144;25.200;2023-04-05T09:59:09;99719.53;;;9.50;72.83
71149;BME280;59072;42.144;25.200;2023-04-05T10:01:36;99722.66;;;9.65;72.53
71149;BME280;59072;42.144;25.200;2023-04-05T10:04:01;99720.22;;;9.82;71.74
71149;BME280;59072;42.144;25.200;2023-04-05T10:06:37;99674.81;;;9.77;69.33
71149;BME280;59072;42.144;25.200;2023-04-05T10:09:04;99723.69;;;9.64;71.97
71149;BME280;59072;42.144;25.200;2023-04-05T10:11:31;99718.75;;;9.86;71.71
71149;BME280;59072;42.144;25.200;2023-04-05T10:13:59;99724.38;;;9.96;71.10
71149;BME280;59072;42.144;25.200;2023-04-05T10:16:27;99716.09;;;9.86;70.21
71149;BME280;59072;42.144;25.200;2023-04-05T10:18:53;99717.72;;;9.87;71.46
71149;BME280;59072;42.144;25.200;2023-04-05T10:21:21;99706.53;;;9.78;73.40
71149;BME280;59072;42.144;25.200;2023-04-05T10:23:50;99722.47;;;10.34;70.74
71149;BME280;59072;42.144;25.200;2023-04-05T10:26:28;99722.84;;;10.37;70.02
71149;BME280;59072;42.144;25.200;2023-04-05T10:28:58;99725.09;;;10.22;69.39
71149;BME280;59072;42.144;25.200;2023-04-05T10:31:42;99715.34;;;9.97;71.12
71149;BME280;59072;42.144;25.200;2023-04-05T10:34:26;99714.69;;;9.83;71.18
71149;BME280;59072;42.144;25.200;2023-04-05T10:36:59;99714.22;;;9.68;72.31
71149;BME280;59072;42.144;25.200;2023-04-05T10:41:54;99706.19;;;10.23;70.98
71149;BME280;59072;42.144;25.200;2023-04-05T10:44:23;99713.75;;;10.26;70.24
71149;BME280;59072;42.144;25.200;2023-04-05T10:46:49;99712.88;;;10.33;71.19
71149;BME280;59072;42.144;25.200;2023-04-05T10:49:36;99717.25;;;9.90;70.50
71149;BME280;59072;42.144;25.200;2023-04-05T10:52:03;99727.03;;;9.78;70.85
71149;BME280;59072;42.144;25.200;2023-04-05T11:07:10;99731.22;;;10.71;66.79
71149;BME280;59072;42.144;25.200;2023-04-05T11:09:39;99731.97;;;10.60;66.11
71149;BME280;59072;42.144;25.200;2023-04-05T11:12:14;99723.00;;;10.42;68.70
71149;BME280;59072;42.144;25.200;2023-04-05T11:14:40;99737.88;;;10.32;68.34
71149;BME280;59072;42.144;25.200;2023-04-05T11:17:26;99732.53;;;10.01;67.97
71149;BME280;59072;42.144;25.200;2023-04-05T11:20:01;99708.75;;;10.00;69.13
71149;BME280;59072;42.144;25.200;2023-04-05T11:22:28;99736.19;;;10.37;68.77
71149;BME280;59072;42.144;25.200;2023-04-05T11:24:57;99720.59;;;10.53;70.07
71149;BME280;59072;42.144;25.200;2023-04-05T11:29:54;99729.88;;;10.13;67.81
71149;BME280;59072;42.144;25.200;2023-04-05T11:32:20;99736.06;;;9.77;68.35
71149;BME280;59072;42.144;25.200;2023-04-05T11:35:01;99720.22;;;9.63;68.53
71149;BME280;59072;42.144;25.200;2023-04-05T11:37:51;99729.97;;;10.06;69.89
71149;BME280;59072;42.144;25.200;2023-04-05T11:40:43;99731.69;;;10.01;67.25
71149;BME280;59072;42.144;25.200;2023-04-05T11:43:10;99724.81;;;9.93;69.64
71149;BME280;59072;42.144;25.200;2023-04-05T11:45:37;99732.22;;;9.91;71.65
71149;BME280;59072;42.144;25.200;2023-04-05T11:48:07;99725.16;;;9.97;69.73
71149;BME280;59072;42.144;25.200;2023-04-05T11:50:35;99733.53;;;9.82;68.73
71149;BME280;59072;42.144;25.200;2023-04-05T11:53:07;99728.28;;;9.75;69.08
71149;BME280;59072;42.144;25.200;2023-04-05T11:55:33;99716.34;;;9.41;71.61
71149;BME280;59072;42.144;25.200;2023-04-05T11:57:59;99708.59;;;9.39;70.76
71149;BME280;59072;42.144;25.200;2023-04-05T12:00:24;99717.31;;;9.28;73.11
71149;BME280;59072;42.144;25.200;2023-04-05T12:02:54;99719.16;;;9.28;74.30
71149;BME280;59072;42.144;25.200;2023-04-05T12:05:20;99722.13;;;9.38;73.41
71149;BME280;59072;42.144;25.200;2023-04-05T12:07:51;99714.78;;;9.33;74.42
71149;BME280;59072;42.144;25.200;2023-04-05T12:10:16;99697.94;;;8.96;75.96
71149;BME280;59072;42.144;25.200;2023-04-05T12:12:43;99723.44;;;9.29;75.03
71149;BME280;59072;42.144;25.200;2023-04-05T12:15:10;99718.34;;;9.02;73.96
71149;BME280;59072;42.144;25.200;2023-04-05T12:17:38;99722.44;;;9.23;75.56
71149;BME280;59072;42.144;25.200;2023-04-05T12:20:04;99715.84;;;9.32;72.41
71149;BME280;59072;42.144;25.200;2023-04-05T12:22:30;99720.94;;;9.34;71.83
71149;BME280;59072;42.144;25.200;2023-04-05T12:24:56;99714.44;;;9.30;73.95
71149;BME280;59072;42.144;25.200;2023-04-05T12:27:22;99718.59;;;9.44;71.72
71149;BME280;59072;42.144;25.200;2023-04-05T12:30:18;99724.28;;;9.66;72.57
71149;BME280;59072;42.144;25.200;2023-04-05T12:32:54;99728.06;;;9.58;67.05
71149;BME280;59072;42.144;25.200;2023-04-05T12:35:27;99729.38;;;9.49;68.29
71149;BME280;59072;42.144;25.200;2023-04-05T12:38:03;99721.38;;;9.31;66.61
71149;BME280;59072;42.144;25.200;2023-04-05T12:40:33;99731.91;;;9.44;68.41
71149;BME280;59072;42.144;25.200;2023-04-05T12:43:05;99731.59;;;9.34;67.74
71149;BME280;59072;42.144;25.200;2023-04-05T12:45:31;99738.97;;;9.32;65.79
71149;BME280;59072;42.144;25.200;2023-04-05T12:48:11;99729.09;;;9.14;67.10
71149;BME280;59072;42.144;25.200;2023-04-05T12:50:42;99740.38;;;9.09;66.17
71149;BME280;59072;42.144;25.200;2023-04-05T12:53:14;99732.03;;;8.74;66.66
71149;BME280;59072;42.144;25.200;2023-04-05T12:55:42;99722.00;;;9.01;68.49
71149;BME280;59072;42.144;25.200;2023-04-05T12:58:11;99736.66;;;9.35;67.92
71149;BME280;59072;42.144;25.200;2023-04-05T13:00:39;99725.06;;;9.30;66.19
71149;BME280;59072;42.144;25.200;2023-04-05T13:03:04;99738.47;;;9.60;66.40
71149;BME280;59072;42.144;25.200;2023-04-05T13:05:30;99741.81;;;9.55;64.51
71149;BME280;59072;42.144;25.200;2023-04-05T13:07:56;99734.84;;;9.36;63.91
71149;BME280;59072;42.144;25.200;2023-04-05T13:10:23;99736.34;;;9.50;65.35
71149;BME280;59072;42.144;25.200;2023-04-05T13:12:50;99737.66;;;9.41;65.57
71149;BME280;59072;42.144;25.200;2023-04-05T13:15:16;99736.91;;;9.34;65.20
71149;BME280;59072;42.144;25.200;2023-04-05T13:17:42;99741.34;;;9.15;66.28
71149;BME280;59072;42.144;25.200;2023-04-05T13:20:11;99726.41;;;8.89;66.38
71149;BME280;59072;42.144;25.200;2023-04-05T13:22:38;99733.69;;;9.25;70.50
71149;BME280;59072;42.144;25.200;2023-04-05T13:25:03;99741.91;;;9.23;69.01
71149;BME280;59072;42.144;25.200;2023-04-05T13:27:29;99732.84;;;8.74;69.54
71149;BME280;59072;42.144;25.200;2023-04-05T13:29:55;99723.50;;;8.65;70.05
71149;BME280;59072;42.144;25.200;2023-04-05T13:32:20;99747.22;;;8.67;71.22